createdAt,value
2019-03-31T00:01:26.180Z,32.27
2019-03-31T00:03:56.396Z,31.97
2019-03-31T00:06:26.585Z,31.40
2019-03-31T00:08:56.911Z,31.57
2019-03-31T00:11:27.140Z,27.80
2019-03-31T00:13:57.360Z,32.70
2019-03-31T00:16:27.600Z,27.80
2019-03-31T00:18:57.855Z,29.93
2019-03-31T00:21:27.992Z,27.77
2019-03-31T00:23:58.275Z,25.33
2019-03-31T00:26:28.450Z,27.33
2019-03-31T00:28:58.640Z,25.03
2019-03-31T00:31:28.952Z,24.23
2019-03-31T00:33:59.112Z,24.97
2019-03-31T00:36:29.395Z,24.20
2019-03-31T00:38:59.619Z,23.10
2019-03-31T00:41:29.782Z,22.43
2019-03-31T00:43:59.961Z,24.57
2019-03-31T00:46:30.228Z,22.60
2019-03-31T00:49:00.449Z,22.03
2019-03-31T00:51:30.668Z,23.57
2019-03-31T00:54:00.912Z,21.60
2019-03-31T00:56:31.149Z,22.93
2019-03-31T00:59:01.342Z,22.03
2019-03-31T01:01:50.144Z,22.83
2019-03-31T01:04:26.170Z,23.50
2019-03-31T01:06:56.365Z,23.63
2019-03-31T01:09:30.683Z,24.50
2019-03-31T01:12:02.475Z,25.43
2019-03-31T01:14:32.995Z,26.67
2019-03-31T01:17:04.900Z,26.20
2019-03-31T01:19:35.495Z,26.73
2019-03-31T01:22:05.776Z,28.73
2019-03-31T01:24:35.942Z,28.67
2019-03-31T01:27:08.278Z,27.77
2019-03-31T01:29:38.465Z,28.87
2019-03-31T01:32:08.984Z,30.77
2019-03-31T01:34:39.195Z,28.23
2019-03-31T01:37:10.362Z,28.63
2019-03-31T01:39:40.675Z,29.47
2019-03-31T01:42:10.889Z,30.33
2019-03-31T01:44:41.084Z,30.27
2019-03-31T01:47:11.849Z,30.17
2019-03-31T01:49:42.107Z,30.30
2019-03-31T01:52:12.488Z,29.97
2019-03-31T01:54:42.672Z,29.03
2019-03-31T01:57:12.922Z,27.73
2019-03-31T01:59:43.137Z,29.47
2019-03-31T02:02:17.617Z,31.03
2019-03-31T02:04:47.831Z,28.07
2019-03-31T02:07:17.999Z,27.30
2019-03-31T02:09:48.243Z,30.67
2019-03-31T02:12:18.430Z,30.10
2019-03-31T02:14:48.712Z,29.30
2019-03-31T02:17:19.455Z,28.23
2019-03-31T02:19:49.664Z,27.70
2019-03-31T02:22:19.879Z,34.13
2019-03-31T02:24:50.129Z,28.37
2019-03-31T02:27:20.295Z,28.03
2019-03-31T02:29:50.513Z,26.70
2019-03-31T02:32:23.997Z,28.37
2019-03-31T02:34:52.665Z,27.20
2019-03-31T02:37:23.016Z,26.83
2019-03-31T02:39:53.220Z,26.23
2019-03-31T02:42:23.402Z,27.53
2019-03-31T02:44:53.617Z,25.90
2019-03-31T02:47:23.809Z,26.90
2019-03-31T02:49:53.987Z,26.00
2019-03-31T02:52:24.583Z,25.43
2019-03-31T02:54:55.196Z,23.87
2019-03-31T02:57:25.905Z,25.67
2019-03-31T02:59:58.721Z,25.77
2019-03-31T03:02:41.404Z,25.27
2019-03-31T03:05:18.666Z,23.60
2019-03-31T03:07:39.680Z,25.77
2019-03-31T03:10:09.836Z,26.93
2019-03-31T03:12:42.378Z,25.93
2019-03-31T03:15:14.076Z,26.23
2019-03-31T03:17:44.310Z,26.40
2019-03-31T03:20:14.524Z,25.30
2019-03-31T03:22:44.772Z,26.13
2019-03-31T03:25:14.945Z,25.87
2019-03-31T03:27:45.077Z,26.80
2019-03-31T03:30:15.351Z,26.13
2019-03-31T03:33:12.650Z,26.30
2019-03-31T03:35:17.287Z,26.63
2019-03-31T03:37:47.422Z,25.27
2019-03-31T03:40:17.563Z,26.03
2019-03-31T03:42:47.784Z,25.13
2019-03-31T03:45:17.933Z,24.60
2019-03-31T03:47:48.121Z,26.73
2019-03-31T03:50:18.300Z,26.67
2019-03-31T03:52:48.475Z,27.40
2019-03-31T03:55:18.713Z,26.43
2019-03-31T03:57:48.880Z,25.77
2019-03-31T04:00:19.028Z,27.30
2019-03-31T04:02:49.206Z,26.73
2019-03-31T04:05:19.349Z,27.67
2019-03-31T04:07:49.554Z,26.50
2019-03-31T04:11:11.330Z,24.93
2019-03-31T04:13:41.497Z,25.60
2019-03-31T04:16:11.713Z,26.87
2019-03-31T04:18:43.101Z,26.03
2019-03-31T04:21:13.681Z,25.13
2019-03-31T04:23:43.832Z,26.37
2019-03-31T04:26:14.055Z,29.30
2019-03-31T04:28:44.233Z,32.70
2019-03-31T04:31:14.409Z,29.07
2019-03-31T04:33:51.410Z,26.13
2019-03-31T04:36:16.416Z,27.53
2019-03-31T04:38:46.557Z,26.77
2019-03-31T04:41:16.717Z,27.67
2019-03-31T04:43:46.915Z,25.77
2019-03-31T04:46:17.129Z,27.63
2019-03-31T04:48:47.328Z,27.63
2019-03-31T04:51:17.668Z,29.33
2019-03-31T04:53:47.796Z,31.73
2019-03-31T04:56:18.008Z,31.33
2019-03-31T04:58:48.123Z,27.93
2019-03-31T05:01:18.255Z,27.93
2019-03-31T05:04:03.385Z,28.03
2019-03-31T05:06:20.329Z,29.27
2019-03-31T05:08:50.561Z,28.67
2019-03-31T05:11:20.742Z,28.90
2019-03-31T05:13:50.938Z,29.83
2019-03-31T05:16:21.220Z,29.33
2019-03-31T05:18:51.415Z,28.67
2019-03-31T05:21:21.585Z,28.77
2019-03-31T05:23:51.794Z,28.80
2019-03-31T05:26:22.056Z,28.57
2019-03-31T05:28:52.127Z,28.70
2019-03-31T05:31:22.167Z,28.07
2019-03-31T05:33:52.303Z,29.17
2019-03-31T05:36:22.379Z,29.63
2019-03-31T05:38:52.439Z,29.53
2019-03-31T05:41:22.516Z,29.40
2019-03-31T05:44:05.076Z,29.80
2019-03-31T05:46:24.350Z,28.60
2019-03-31T05:48:54.355Z,28.30
2019-03-31T05:51:24.436Z,28.77
2019-03-31T05:53:54.559Z,28.33
2019-03-31T05:56:24.672Z,26.83
2019-03-31T05:58:54.740Z,28.87
2019-03-31T06:01:24.918Z,29.70
2019-03-31T06:03:54.997Z,29.17
2019-03-31T06:06:25.085Z,29.70
2019-03-31T06:08:55.146Z,30.03
2019-03-31T06:11:25.273Z,31.00
2019-03-31T06:13:55.326Z,28.13
2019-03-31T06:16:25.374Z,28.37
2019-03-31T06:18:55.486Z,27.87
2019-03-31T06:21:29.187Z,27.97
2019-03-31T06:23:57.242Z,26.50
2019-03-31T06:26:27.298Z,27.80
2019-03-31T06:28:57.358Z,27.00
2019-03-31T06:31:27.427Z,28.43
2019-03-31T06:33:57.470Z,29.07
2019-03-31T06:36:27.606Z,28.87
2019-03-31T06:38:57.747Z,27.57
2019-03-31T06:41:41.718Z,27.43
2019-03-31T06:44:11.777Z,27.13
2019-03-31T06:46:44.103Z,26.10
2019-03-31T06:49:14.358Z,25.57
2019-03-31T06:51:50.037Z,22.53
2019-03-31T06:54:20.255Z,22.63
2019-03-31T06:56:52.375Z,22.90
2019-03-31T06:59:23.594Z,22.80
2019-03-31T07:02:07.558Z,22.47
2019-03-31T07:04:39.150Z,21.57
2019-03-31T07:07:09.314Z,18.47
2019-03-31T07:09:39.350Z,17.10
2019-03-31T07:12:09.438Z,16.40
2019-03-31T07:14:39.527Z,16.50
2019-03-31T07:17:09.672Z,16.10
2019-03-31T07:19:39.744Z,18.67
2019-03-31T07:22:09.847Z,17.10
2019-03-31T07:24:42.166Z,17.13
2019-03-31T07:27:12.223Z,16.37
2019-03-31T07:29:42.351Z,17.13
2019-03-31T07:32:12.433Z,15.87
2019-03-31T07:34:42.527Z,16.93
2019-03-31T07:37:12.601Z,17.33
2019-03-31T07:39:45.796Z,17.47
2019-03-31T07:42:14.426Z,18.33
2019-03-31T07:44:44.459Z,17.47
2019-03-31T07:47:14.719Z,17.80
2019-03-31T07:49:44.901Z,17.83
2019-03-31T07:52:14.918Z,16.23
2019-03-31T07:54:45.406Z,18.20
2019-03-31T07:57:16.055Z,15.87
2019-03-31T07:59:46.155Z,17.77
2019-03-31T08:02:18.095Z,18.00
2019-03-31T08:04:48.138Z,20.30
2019-03-31T08:07:18.327Z,20.07
2019-03-31T08:09:48.480Z,19.20
2019-03-31T08:12:21.843Z,18.87
2019-03-31T08:14:51.896Z,20.60
2019-03-31T08:17:21.967Z,20.87
2019-03-31T08:19:52.253Z,20.13
2019-03-31T08:22:23.395Z,20.10
2019-03-31T08:24:53.481Z,20.07
2019-03-31T08:27:23.578Z,20.73
2019-03-31T08:30:00.448Z,20.37
2019-03-31T08:32:28.274Z,19.90
2019-03-31T08:34:58.372Z,22.47
2019-03-31T08:37:28.459Z,21.80
2019-03-31T08:39:58.520Z,21.87
2019-03-31T08:42:28.595Z,21.63
2019-03-31T08:44:58.830Z,22.77
2019-03-31T08:47:29.156Z,20.37
2019-03-31T08:50:02.147Z,20.40
2019-03-31T08:52:30.931Z,21.57
2019-03-31T08:55:01.013Z,19.77
2019-03-31T08:57:31.110Z,22.07
2019-03-31T09:00:01.258Z,22.83
2019-03-31T09:02:34.085Z,21.37
2019-03-31T09:05:08.971Z,20.80
2019-03-31T09:07:41.837Z,22.07
2019-03-31T09:10:11.459Z,21.73
2019-03-31T09:12:41.563Z,21.50
2019-03-31T09:15:12.963Z,22.00
2019-03-31T09:17:43.027Z,22.33
2019-03-31T09:20:14.807Z,22.50
2019-03-31T09:22:44.899Z,23.80
2019-03-31T09:25:16.435Z,23.53
2019-03-31T09:27:46.537Z,24.10
2019-03-31T09:30:18.103Z,23.50
2019-03-31T09:32:48.180Z,23.10
2019-03-31T09:35:18.262Z,22.83
2019-03-31T09:37:48.321Z,23.47
2019-03-31T09:40:18.751Z,23.70
2019-03-31T09:42:48.886Z,23.73
2019-03-31T09:45:19.129Z,23.77
2019-03-31T09:47:49.230Z,24.87
2019-03-31T09:50:19.650Z,28.07
2019-03-31T09:52:49.711Z,23.63
2019-03-31T09:55:22.920Z,24.27
2019-03-31T09:57:51.543Z,25.23
2019-03-31T10:00:43.954Z,24.83
2019-03-31T10:03:14.305Z,22.33
2019-03-31T10:05:47.745Z,21.50
2019-03-31T10:08:16.236Z,23.30
2019-03-31T10:10:46.400Z,23.00
2019-03-31T10:13:16.504Z,22.40
2019-03-31T10:15:46.707Z,22.57
2019-03-31T10:18:18.332Z,23.27
2019-03-31T10:20:48.598Z,23.83
2019-03-31T10:23:18.686Z,23.33
2019-03-31T10:25:48.812Z,23.03
2019-03-31T10:28:20.663Z,23.37
2019-03-31T10:30:50.758Z,24.67
2019-03-31T10:33:20.950Z,23.00
2019-03-31T10:35:51.071Z,22.33
2019-03-31T10:38:21.162Z,23.27
2019-03-31T10:40:51.302Z,24.17
2019-03-31T10:43:21.389Z,24.27
2019-03-31T10:45:51.519Z,23.13
2019-03-31T10:48:21.581Z,24.33
2019-03-31T10:50:54.277Z,24.03
2019-03-31T10:53:24.792Z,24.50
2019-03-31T10:55:54.815Z,24.20
2019-03-31T10:58:25.176Z,24.00
2019-03-31T11:00:55.240Z,24.00
2019-03-31T11:03:28.929Z,24.00
2019-03-31T11:06:02.203Z,24.20
2019-03-31T11:08:32.303Z,23.00
2019-03-31T11:11:02.385Z,21.53
2019-03-31T11:13:32.515Z,23.27
2019-03-31T11:16:02.688Z,21.30
2019-03-31T11:18:32.821Z,21.77
2019-03-31T11:21:09.001Z,21.80
2019-03-31T11:23:40.410Z,20.70
2019-03-31T11:26:10.589Z,20.27
2019-03-31T11:28:40.804Z,20.03
2019-03-31T11:31:17.644Z,20.70
2019-03-31T11:33:48.561Z,20.57
2019-03-31T11:36:20.308Z,20.73
2019-03-31T11:38:50.462Z,19.70
2019-03-31T11:41:22.164Z,21.53
2019-03-31T11:43:54.436Z,21.30
2019-03-31T11:46:39.471Z,22.13
2019-03-31T11:49:12.125Z,19.80
2019-03-31T11:52:03.930Z,21.47
2019-03-31T11:54:37.055Z,18.73
2019-03-31T11:57:07.420Z,19.23
2019-03-31T11:59:44.162Z,19.60
2019-03-31T12:02:26.512Z,18.63
2019-03-31T12:04:48.902Z,19.30
2019-03-31T12:07:27.930Z,19.10
2019-03-31T12:09:51.095Z,19.20
2019-03-31T12:12:25.892Z,18.33
2019-03-31T12:15:00.529Z,17.57
2019-03-31T12:17:32.894Z,17.00
2019-03-31T12:20:03.414Z,18.17
2019-03-31T12:22:35.805Z,18.40
2019-03-31T12:25:08.775Z,18.37
2019-03-31T12:27:39.225Z,18.73
2019-03-31T12:30:10.021Z,18.30
2019-03-31T12:32:42.752Z,18.07
2019-03-31T12:35:15.124Z,18.53
2019-03-31T12:37:45.314Z,17.73
2019-03-31T12:40:35.137Z,17.30
2019-03-31T12:43:05.566Z,16.40
2019-03-31T12:45:38.414Z,16.30
2019-03-31T12:48:08.909Z,15.80
2019-03-31T12:50:39.185Z,30.07
2019-03-31T12:53:10.461Z,16.97
2019-03-31T12:55:40.860Z,16.13
2019-03-31T12:58:15.320Z,15.47
2019-03-31T13:00:45.897Z,16.70
2019-03-31T13:03:16.643Z,16.90
2019-03-31T13:05:47.138Z,16.70
2019-03-31T13:08:17.645Z,17.73
2019-03-31T13:10:48.111Z,16.33
2019-03-31T13:13:18.392Z,16.80
2019-03-31T13:15:48.589Z,16.13
2019-03-31T13:18:20.072Z,16.57
2019-03-31T13:20:50.814Z,15.73
2019-03-31T13:23:21.091Z,15.03
2019-03-31T13:25:54.058Z,15.40
2019-03-31T13:28:26.067Z,13.97
2019-03-31T13:30:59.379Z,15.53
2019-03-31T13:33:29.683Z,15.23
2019-03-31T13:35:59.807Z,16.37
2019-03-31T13:38:29.884Z,16.60
2019-03-31T13:40:59.978Z,15.27
2019-03-31T13:43:30.049Z,15.53
2019-03-31T13:46:00.375Z,14.97
2019-03-31T13:48:32.707Z,15.20
2019-03-31T13:51:02.755Z,13.77
2019-03-31T13:53:32.883Z,14.93
2019-03-31T13:56:02.998Z,13.60
2019-03-31T13:58:33.621Z,12.13
2019-03-31T14:01:04.145Z,11.70
2019-03-31T14:03:34.238Z,14.10
2019-03-31T14:06:04.293Z,13.43
2019-03-31T14:08:34.379Z,13.57
2019-03-31T14:11:04.729Z,14.70
2019-03-31T14:13:34.803Z,13.87
2019-03-31T14:16:04.899Z,15.40
2019-03-31T14:18:34.989Z,14.90
2019-03-31T14:21:05.043Z,15.60
2019-03-31T14:23:35.160Z,17.30
2019-03-31T14:26:05.252Z,15.57
2019-03-31T14:28:35.396Z,16.33
2019-03-31T14:31:05.463Z,16.43
2019-03-31T14:33:35.539Z,13.00
2019-03-31T14:36:05.707Z,14.93
2019-03-31T14:38:40.333Z,16.83
2019-03-31T14:41:07.523Z,15.73
2019-03-31T14:43:37.595Z,14.40
2019-03-31T14:46:07.679Z,15.17
2019-03-31T14:48:37.775Z,17.33
2019-03-31T14:51:07.861Z,17.43
2019-03-31T14:53:38.970Z,14.67
2019-03-31T14:56:09.035Z,14.33
2019-03-31T14:58:39.123Z,14.17
2019-03-31T15:01:09.214Z,14.47
2019-03-31T15:03:39.316Z,14.77
2019-03-31T15:06:09.454Z,13.83
2019-03-31T15:08:53.463Z,14.30
2019-03-31T15:11:11.240Z,15.17
2019-03-31T15:13:41.343Z,15.53
2019-03-31T15:16:11.428Z,14.73
2019-03-31T15:18:41.539Z,13.77
2019-03-31T15:21:11.623Z,15.13
2019-03-31T15:23:41.719Z,14.67
2019-03-31T15:26:11.831Z,14.03
2019-03-31T15:28:45.198Z,14.30
2019-03-31T15:31:13.690Z,13.23
2019-03-31T15:33:43.752Z,14.40
2019-03-31T15:36:13.799Z,14.57
2019-03-31T15:38:43.957Z,14.37
2019-03-31T15:41:20.955Z,13.23
2019-03-31T15:43:45.765Z,13.53
2019-03-31T15:46:15.854Z,12.30
2019-03-31T15:48:45.914Z,12.23
2019-03-31T15:51:16.056Z,12.80
2019-03-31T15:53:46.251Z,14.17
2019-03-31T15:56:16.290Z,13.07
2019-03-31T15:58:46.580Z,12.33
2019-03-31T16:01:16.934Z,12.80
2019-03-31T16:03:46.983Z,13.70
2019-03-31T16:06:17.118Z,12.90
2019-03-31T16:08:46.644Z,12.67
2019-03-31T16:11:16.218Z,12.30
2019-03-31T16:13:45.787Z,12.93
2019-03-31T16:16:15.303Z,13.40
2019-03-31T16:18:44.823Z,12.33
2019-03-31T16:21:14.364Z,12.83
2019-03-31T16:23:43.868Z,12.53
2019-03-31T16:26:13.375Z,12.53
2019-03-31T16:28:42.907Z,12.47
2019-03-31T16:31:12.418Z,14.20
2019-03-31T16:33:41.942Z,10.97
2019-03-31T16:36:11.481Z,12.80
2019-03-31T16:38:40.974Z,12.00
2019-03-31T16:41:10.479Z,13.00
2019-03-31T16:43:40.035Z,13.67
2019-03-31T16:46:09.550Z,13.30
2019-03-31T16:48:39.073Z,11.90
2019-03-31T16:51:08.648Z,12.63
2019-03-31T16:53:38.155Z,12.43
2019-03-31T16:56:07.659Z,13.00
2019-03-31T16:58:37.216Z,11.30
2019-03-31T17:01:06.784Z,12.10
2019-03-31T17:03:36.310Z,12.10
2019-03-31T17:06:05.864Z,12.67
2019-03-31T17:08:36.463Z,13.37
2019-03-31T17:11:06.130Z,11.87
2019-03-31T17:13:35.774Z,11.87
2019-03-31T17:16:05.287Z,11.03
2019-03-31T17:18:34.849Z,11.60
2019-03-31T17:21:04.388Z,10.93
2019-03-31T17:23:33.923Z,11.13
2019-03-31T17:26:03.452Z,12.23
2019-03-31T17:28:33.011Z,13.53
2019-03-31T17:31:02.540Z,10.70
2019-03-31T17:33:32.072Z,12.70
2019-03-31T17:36:01.620Z,12.93
2019-03-31T17:38:32.304Z,11.63
2019-03-31T17:41:22.194Z,12.17
2019-03-31T17:43:51.968Z,12.77
2019-03-31T17:46:21.759Z,12.93
2019-03-31T17:49:01.822Z,12.03
2019-03-31T17:51:31.555Z,13.00
2019-03-31T17:54:06.873Z,12.63
2019-03-31T17:56:37.297Z,13.63
2019-03-31T17:59:09.312Z,14.23
2019-03-31T18:01:41.079Z,13.43
2019-03-31T18:04:13.628Z,12.80
2019-03-31T18:06:43.724Z,14.13
2019-03-31T18:09:13.613Z,12.73
2019-03-31T18:11:48.736Z,12.60
2019-03-31T18:14:18.851Z,11.63
2019-03-31T18:16:49.768Z,12.07
2019-03-31T18:19:40.958Z,11.77
2019-03-31T18:22:16.822Z,11.83
2019-03-31T18:24:41.936Z,12.13
2019-03-31T18:27:11.587Z,12.07
2019-03-31T18:29:41.439Z,12.50
2019-03-31T18:32:20.876Z,12.73
2019-03-31T18:34:50.257Z,12.27
2019-03-31T18:37:19.982Z,11.73
2019-03-31T18:39:49.900Z,11.77
2019-03-31T18:42:19.539Z,12.90
2019-03-31T18:44:49.214Z,13.27
2019-03-31T18:47:18.832Z,12.90
2019-03-31T18:49:48.431Z,12.57
2019-03-31T18:52:18.197Z,11.60
2019-03-31T18:55:09.546Z,12.17
2019-03-31T18:58:03.768Z,11.70
2019-03-31T19:00:50.722Z,13.13
2019-03-31T19:03:43.264Z,12.13
2019-03-31T19:06:34.367Z,12.63
2019-03-31T19:09:22.972Z,12.90
2019-03-31T19:12:00.427Z,12.90
2019-03-31T19:14:40.166Z,12.67
2019-03-31T19:17:37.841Z,12.03
2019-03-31T19:20:25.221Z,10.93
2019-03-31T19:23:28.815Z,11.57
2019-03-31T19:26:26.499Z,12.23
2019-03-31T19:29:16.904Z,13.10
2019-03-31T19:32:22.073Z,14.97
2019-03-31T19:35:09.317Z,12.73
2019-03-31T19:38:06.899Z,13.63
2019-03-31T19:41:03.975Z,14.40
2019-03-31T19:43:44.540Z,13.43
2019-03-31T19:46:42.057Z,14.30
2019-03-31T19:49:29.125Z,14.20
2019-03-31T19:52:23.054Z,14.03
2019-03-31T19:55:14.458Z,14.10
2019-03-31T19:58:02.101Z,14.33
2019-03-31T20:00:54.554Z,14.90
2019-03-31T20:03:54.861Z,14.63
2019-03-31T20:06:32.638Z,16.00
2019-03-31T20:09:27.013Z,16.93
2019-03-31T20:12:14.234Z,17.30
2019-03-31T20:15:02.751Z,17.13
2019-03-31T20:17:51.270Z,18.13
2019-03-31T20:20:27.869Z,18.60
2019-03-31T20:23:18.431Z,19.73
2019-03-31T20:26:06.868Z,20.13
2019-03-31T20:29:01.203Z,19.90
2019-03-31T20:31:41.179Z,19.43
2019-03-31T20:34:34.919Z,19.67
2019-03-31T20:37:11.939Z,18.03
2019-03-31T20:39:56.712Z,18.50
2019-03-31T20:42:39.825Z,18.73
2019-03-31T20:45:12.697Z,18.80
2019-03-31T20:47:42.241Z,16.70
2019-03-31T20:50:11.726Z,14.40
2019-03-31T20:52:41.246Z,12.37
2019-03-31T20:55:16.683Z,10.87
2019-03-31T20:57:42.126Z,9.23
2019-03-31T21:00:11.995Z,11.10
2019-03-31T21:02:42.791Z,9.77
2019-03-31T21:05:12.321Z,9.83
2019-03-31T21:07:41.847Z,10.10
2019-03-31T21:10:11.392Z,9.90
2019-03-31T21:12:40.951Z,9.00
2019-03-31T21:15:10.463Z,9.63
2019-03-31T21:17:40.032Z,10.93
2019-03-31T21:20:10.056Z,9.80
2019-03-31T21:22:39.572Z,9.23
2019-03-31T21:25:09.109Z,9.70
2019-03-31T21:27:38.651Z,9.20
2019-03-31T21:30:08.171Z,10.43
2019-03-31T21:32:37.934Z,8.67
2019-03-31T21:35:07.588Z,8.77
2019-03-31T21:37:37.199Z,8.93
2019-03-31T21:40:06.924Z,8.87
2019-03-31T21:42:36.467Z,7.63
2019-03-31T21:45:06.177Z,8.10
2019-03-31T21:47:35.856Z,7.13
2019-03-31T21:50:05.791Z,7.80
2019-03-31T21:52:35.298Z,6.80
2019-03-31T21:55:05.536Z,7.40
2019-03-31T21:57:35.064Z,6.00
2019-03-31T22:00:06.387Z,5.93
2019-03-31T22:02:35.968Z,6.40
2019-03-31T22:05:06.239Z,6.00
2019-03-31T22:07:36.025Z,5.60
2019-03-31T22:10:07.738Z,5.77
2019-03-31T22:12:37.399Z,5.03
2019-03-31T22:15:10.175Z,4.43
2019-03-31T22:17:39.771Z,4.97
2019-03-31T22:20:09.558Z,5.07
2019-03-31T22:22:39.099Z,4.57
2019-03-31T22:25:08.952Z,5.03
2019-03-31T22:27:38.443Z,4.43
2019-03-31T22:30:08.395Z,4.27
2019-03-31T22:32:37.904Z,4.30
2019-03-31T22:35:09.301Z,4.03
2019-03-31T22:37:38.967Z,4.10
2019-03-31T22:40:08.595Z,5.03
2019-03-31T22:42:38.098Z,3.83
2019-03-31T22:45:07.759Z,3.70
2019-03-31T22:47:37.302Z,3.60
2019-03-31T22:50:07.047Z,4.00
2019-03-31T22:52:36.707Z,4.67
2019-03-31T22:55:06.384Z,4.00
2019-03-31T22:57:35.907Z,3.97
2019-03-31T23:00:05.897Z,4.07
2019-03-31T23:02:35.427Z,3.87
2019-03-31T23:05:05.216Z,3.23
2019-03-31T23:07:34.741Z,3.50
2019-03-31T23:10:04.600Z,3.93
2019-03-31T23:12:34.089Z,3.07
2019-03-31T23:15:03.656Z,3.77
2019-03-31T23:17:33.164Z,3.40
2019-03-31T23:20:02.663Z,3.57
2019-03-31T23:22:32.170Z,4.20
2019-03-31T23:25:01.681Z,3.83
2019-03-31T23:27:31.172Z,3.27
2019-03-31T23:30:00.723Z,3.63
2019-03-31T23:32:30.214Z,3.43
2019-03-31T23:34:59.739Z,3.53
2019-03-31T23:37:29.280Z,3.03
2019-03-31T23:39:58.784Z,3.77
2019-03-31T23:42:28.275Z,2.90
2019-03-31T23:44:57.799Z,3.30
2019-03-31T23:47:27.299Z,2.93
2019-03-31T23:49:56.804Z,2.83
2019-03-31T23:52:26.316Z,3.10
2019-03-31T23:54:55.811Z,3.33
2019-03-31T23:57:40.928Z,2.30
